createdAt,value
2022-10-30T00:00:03.419Z,13.6
2022-10-30T00:15:02.847Z,13.6
2022-10-30T00:30:02.273Z,13.6
2022-10-30T00:45:02.702Z,13.6
2022-10-30T01:00:03.121Z,13.4
2022-10-30T01:15:02.567Z,13.3
2022-10-30T01:30:03.129Z,13.1
2022-10-30T01:45:02.449Z,13.0
2022-10-30T02:00:03.131Z,12.6
2022-10-30T02:15:02.331Z,12.5
2022-10-30T02:30:02.768Z,12.4
2022-10-30T02:45:03.218Z,12.4
2022-10-30T03:00:02.645Z,12.3
2022-10-30T03:15:03.117Z,12.2
2022-10-30T03:30:02.517Z,12.0
2022-10-30T03:45:03.142Z,11.8
2022-10-30T04:00:02.369Z,11.6
2022-10-30T04:15:02.832Z,11.2
2022-10-30T04:30:02.261Z,10.9
2022-10-30T04:45:04.981Z,10.8
2022-10-30T05:15:02.595Z,10.8
2022-10-30T05:30:02.170Z,10.7
2022-10-30T05:45:02.836Z,10.6
2022-10-30T06:15:02.325Z,10.1
2022-10-30T06:30:02.755Z,9.8
2022-10-30T06:45:03.217Z,9.7
2022-10-30T07:00:02.653Z,9.7
2022-10-30T07:15:03.188Z,9.8
2022-10-30T07:30:02.508Z,10.0
2022-10-30T07:45:03.254Z,10.2
2022-10-30T08:00:04.425Z,10.7
2022-10-30T08:30:02.279Z,12.5
2022-10-30T08:45:02.721Z,15.5
2022-10-30T09:00:03.226Z,18.0
2022-10-30T09:15:02.598Z,19.6
2022-10-30T09:30:03.232Z,21.0
2022-10-30T09:45:27.384Z,22.0
2022-10-30T10:00:02.916Z,22.4
2022-10-30T10:15:02.359Z,22.4
2022-10-30T10:30:02.792Z,21.2
2022-10-30T10:45:03.267Z,20.5
2022-10-30T11:00:02.668Z,20.8
2022-10-30T11:15:03.233Z,21.6
2022-10-30T11:30:02.542Z,22.0
2022-10-30T11:45:02.989Z,22.8
2022-10-30T12:00:05.577Z,23.5
2022-10-30T12:15:02.836Z,24.6
2022-10-30T12:30:08.510Z,24.5
2022-10-30T12:45:02.725Z,24.3
2022-10-30T13:00:03.288Z,23.6
2022-10-30T13:15:02.605Z,22.7
2022-10-30T13:30:03.251Z,22.0
2022-10-30T13:45:02.487Z,21.6
2022-10-30T14:00:02.909Z,21.2
2022-10-30T14:15:02.357Z,20.9
2022-10-30T14:30:02.786Z,20.5
2022-10-30T14:45:03.278Z,20.0
2022-10-30T15:00:02.641Z,19.5
2022-10-30T15:15:03.281Z,19.1
2022-10-30T15:30:02.525Z,18.4
2022-10-30T15:45:02.997Z,17.5
2022-10-30T16:00:02.477Z,16.8
2022-10-30T16:15:02.840Z,16.0
2022-10-30T16:30:02.292Z,15.4
2022-10-30T16:45:02.726Z,14.8
2022-10-30T17:00:03.307Z,14.4
2022-10-30T17:15:02.614Z,14.0
2022-10-30T17:30:03.228Z,13.8
2022-10-30T17:45:02.495Z,13.5
2022-10-30T18:00:02.920Z,13.2
2022-10-30T18:15:02.370Z,12.9
2022-10-30T18:30:02.807Z,12.7
2022-10-30T18:45:03.325Z,12.4
2022-10-30T19:00:02.684Z,12.1
2022-10-30T19:15:03.322Z,11.8
2022-10-30T19:30:02.547Z,11.7
2022-10-30T19:45:02.991Z,11.5
2022-10-30T20:00:02.421Z,11.3
2022-10-30T20:15:02.848Z,11.2
2022-10-30T20:30:02.329Z,11.2
2022-10-30T20:45:02.746Z,11.0
2022-10-30T21:00:03.345Z,10.9
2022-10-30T21:15:02.612Z,11.0
2022-10-30T21:30:03.067Z,11.0
2022-10-30T21:45:02.500Z,10.9
2022-10-30T22:00:05.643Z,10.8
2022-10-30T22:15:02.365Z,10.9
2022-10-30T22:30:02.772Z,10.9
2022-10-30T22:45:03.364Z,10.7
2022-10-30T23:00:02.672Z,10.5
2022-10-30T23:15:03.118Z,10.5
2022-10-30T23:30:02.538Z,10.3
2022-10-30T23:45:02.960Z,10.2
